createdAt,value
2019-01-19T00:00:25.118Z,0.00
2019-01-19T00:01:25.518Z,0.00
2019-01-19T00:02:25.298Z,0.00
2019-01-19T00:03:25.090Z,0.00
2019-01-19T00:04:25.078Z,0.00
2019-01-19T00:05:25.265Z,0.00
2019-01-19T00:06:58.268Z,0.00
2019-01-19T00:07:25.041Z,0.00
2019-01-19T00:08:25.031Z,0.00
2019-01-19T00:09:25.027Z,0.00
2019-01-19T00:10:25.216Z,0.00
2019-01-19T00:11:25.000Z,0.00
2019-01-19T00:15:24.960Z,0.00
2019-01-19T00:16:24.954Z,0.00
2019-01-19T00:17:24.939Z,0.00
2019-01-19T00:18:24.931Z,0.00
2019-01-19T00:21:24.899Z,0.00
2019-01-19T00:23:24.872Z,0.00
2019-01-19T00:26:24.840Z,0.00
2019-01-19T00:27:24.829Z,0.00
2019-01-19T00:28:24.819Z,0.00
2019-01-19T00:29:25.010Z,0.00
2019-01-19T00:31:24.784Z,0.00
2019-01-19T00:32:24.782Z,0.00
2019-01-19T00:35:24.746Z,0.00
2019-01-19T00:36:24.735Z,0.00
2019-01-19T00:37:24.719Z,0.00
2019-01-19T00:38:24.712Z,0.00
2019-01-19T00:40:24.687Z,0.00
2019-01-19T00:41:24.876Z,0.00
2019-01-19T00:42:24.670Z,0.00
2019-01-19T00:43:24.660Z,0.00
2019-01-19T00:44:24.647Z,0.00
2019-01-19T00:45:24.838Z,0.00
2019-01-19T00:46:24.621Z,0.00
2019-01-19T00:48:24.799Z,0.00
2019-01-19T00:49:24.587Z,0.00
2019-01-19T00:50:24.576Z,0.00
2019-01-19T00:51:25.796Z,0.00
2019-01-19T00:54:24.539Z,0.00
2019-01-19T00:55:24.523Z,0.00
2019-01-19T00:57:24.502Z,0.00
2019-01-19T00:59:24.683Z,0.00
2019-01-19T01:01:24.459Z,0.00
2019-01-19T01:02:24.654Z,0.00
2019-01-19T01:05:25.391Z,0.00
2019-01-19T01:06:24.407Z,0.00
2019-01-19T01:07:24.395Z,0.00
2019-01-19T01:08:24.387Z,0.00
2019-01-19T01:09:24.578Z,0.00
2019-01-19T01:10:24.360Z,0.00
2019-01-19T01:11:24.352Z,0.00
2019-01-19T01:12:24.336Z,0.00
2019-01-19T01:14:24.316Z,0.00
2019-01-19T01:15:24.307Z,0.00
2019-01-19T01:20:24.662Z,0.00
2019-01-19T01:23:24.216Z,0.00
2019-01-19T01:24:24.211Z,0.00
2019-01-19T01:26:25.404Z,0.00
2019-01-19T01:27:24.180Z,0.00
2019-01-19T01:30:24.547Z,0.00
2019-01-19T01:31:24.335Z,0.00
2019-01-19T01:32:24.124Z,0.00
2019-01-19T01:33:24.312Z,0.00
2019-01-19T01:35:57.500Z,0.00
2019-01-19T01:36:24.488Z,0.00
2019-01-19T01:37:24.069Z,0.00
2019-01-19T01:38:24.466Z,0.00
2019-01-19T01:39:24.255Z,0.00
2019-01-19T01:42:24.010Z,0.00
2019-01-19T01:44:57.205Z,0.00
2019-01-19T01:45:23.981Z,0.00
2019-01-19T01:46:23.968Z,0.00
2019-01-19T01:47:24.164Z,0.00
2019-01-19T01:49:24.140Z,0.00
2019-01-19T01:51:23.920Z,0.00
2019-01-19T01:53:23.900Z,0.00
2019-01-19T01:54:24.088Z,0.00
2019-01-19T01:56:24.068Z,0.00
2019-01-19T01:57:24.060Z,0.00
2019-01-19T01:59:23.829Z,0.00
2019-01-19T02:00:23.820Z,0.00
2019-01-19T02:01:24.010Z,0.00
2019-01-19T02:03:24.195Z,0.00
2019-01-19T02:06:23.760Z,0.00
2019-01-19T02:07:23.749Z,0.00
2019-01-19T02:10:23.709Z,0.00
2019-01-19T02:11:23.700Z,0.00
2019-01-19T02:12:23.691Z,0.00
2019-01-19T02:13:23.678Z,0.00
2019-01-19T02:14:23.669Z,0.00
2019-01-19T02:15:56.867Z,0.00
2019-01-19T02:16:23.649Z,0.00
2019-01-19T02:17:23.634Z,0.00
2019-01-19T02:18:23.631Z,0.00
2019-01-19T02:19:23.814Z,0.00
2019-01-19T02:20:57.018Z,0.00
2019-01-19T02:21:23.592Z,0.00
2019-01-19T02:22:23.583Z,0.00
2019-01-19T02:24:23.559Z,0.00
2019-01-19T02:25:23.555Z,0.00
2019-01-19T02:27:23.728Z,0.00
2019-01-19T02:28:23.519Z,0.00
2019-01-19T02:29:23.710Z,0.00
2019-01-19T02:30:23.500Z,0.00
2019-01-19T02:32:23.682Z,0.00
2019-01-19T02:33:23.466Z,0.00
2019-01-19T02:34:23.455Z,0.00
2019-01-19T02:37:23.422Z,0.00
2019-01-19T02:38:23.412Z,0.00
2019-01-19T02:39:23.603Z,0.00
2019-01-19T02:40:23.396Z,0.00
2019-01-19T02:41:23.375Z,0.00
2019-01-19T02:42:23.372Z,0.00
2019-01-19T02:45:23.332Z,0.00
2019-01-19T02:47:23.315Z,0.00
2019-01-19T02:48:23.358Z,0.00
2019-01-19T02:49:23.492Z,0.00
2019-01-19T02:50:23.286Z,0.00
2019-01-19T02:51:23.470Z,0.00
2019-01-19T02:52:23.257Z,0.00
2019-01-19T02:53:23.452Z,0.00
2019-01-19T02:54:23.237Z,0.00
2019-01-19T02:55:23.226Z,0.00
2019-01-19T02:57:23.206Z,0.00
2019-01-19T02:58:23.195Z,0.00
2019-01-19T02:59:23.186Z,0.00
2019-01-19T03:00:23.379Z,0.00
2019-01-19T03:01:23.171Z,0.00
2019-01-19T03:03:23.543Z,0.00
2019-01-19T03:04:23.128Z,0.00
2019-01-19T03:05:23.122Z,0.00
2019-01-19T03:07:24.320Z,0.00
2019-01-19T03:08:23.084Z,0.00
2019-01-19T03:09:23.076Z,0.00
2019-01-19T03:12:23.047Z,0.00
2019-01-19T03:14:24.440Z,0.00
2019-01-19T03:15:23.215Z,0.00
2019-01-19T03:16:22.997Z,0.00
2019-01-19T03:17:22.993Z,0.00
2019-01-19T03:19:22.972Z,0.00
2019-01-19T03:20:22.961Z,0.00
2019-01-19T03:21:23.153Z,0.00
2019-01-19T03:22:22.934Z,0.00
2019-01-19T03:23:22.924Z,0.00
2019-01-19T03:24:23.118Z,0.00
2019-01-19T03:25:22.900Z,0.00
2019-01-19T03:26:23.098Z,0.00
2019-01-19T03:27:22.877Z,0.00
2019-01-19T03:28:23.272Z,0.00
2019-01-19T03:29:23.060Z,0.00
2019-01-19T03:30:23.052Z,0.00
2019-01-19T03:33:23.022Z,0.00
2019-01-19T03:34:23.005Z,0.00
2019-01-19T03:37:22.977Z,0.00
2019-01-19T03:39:22.754Z,0.00
2019-01-19T03:40:22.949Z,0.00
2019-01-19T03:41:22.732Z,0.00
2019-01-19T03:42:22.715Z,0.00
2019-01-19T03:43:22.702Z,0.00
2019-01-19T03:44:22.901Z,0.00
2019-01-19T03:45:22.683Z,0.00
2019-01-19T03:46:22.670Z,0.00
2019-01-19T03:48:22.646Z,0.00
2019-01-19T03:50:22.632Z,0.00
2019-01-19T03:51:22.617Z,0.00
2019-01-19T03:52:22.611Z,0.00
2019-01-19T03:53:22.598Z,0.00
2019-01-19T03:54:22.792Z,0.00
2019-01-19T03:55:22.573Z,0.00
2019-01-19T03:57:22.554Z,0.00
2019-01-19T03:58:22.750Z,0.00
2019-01-19T03:59:22.534Z,0.00
2019-01-19T04:00:22.516Z,0.00
2019-01-19T04:01:22.709Z,0.00
2019-01-19T04:02:22.699Z,0.00
2019-01-19T04:03:22.484Z,0.00
2019-01-19T04:04:22.674Z,0.00
2019-01-19T04:05:22.465Z,0.00
2019-01-19T04:06:22.452Z,0.00
2019-01-19T04:08:22.714Z,0.00
2019-01-19T04:09:22.418Z,0.00
2019-01-19T04:10:22.409Z,0.00
2019-01-19T04:13:22.386Z,0.00
2019-01-19T04:14:55.777Z,0.00
2019-01-19T04:15:22.559Z,0.00
2019-01-19T04:18:22.322Z,0.00
2019-01-19T04:19:22.512Z,0.00
2019-01-19T04:20:22.299Z,0.00
2019-01-19T04:21:22.286Z,0.00
2019-01-19T04:23:22.266Z,0.00
2019-01-19T04:24:22.257Z,0.00
2019-01-19T04:26:22.238Z,0.00
2019-01-19T04:27:22.425Z,0.00
2019-01-19T04:30:22.187Z,0.00
2019-01-19T04:31:22.175Z,0.00
2019-01-19T04:32:22.169Z,0.00
2019-01-19T04:34:22.148Z,0.00
2019-01-19T04:35:22.132Z,0.00
2019-01-19T04:38:22.308Z,0.00
2019-01-19T04:39:22.295Z,0.00
2019-01-19T04:41:22.071Z,0.00
2019-01-19T04:46:22.015Z,0.00
2019-01-19T04:47:22.204Z,0.00
2019-01-19T04:48:21.987Z,0.00
2019-01-19T04:50:21.975Z,0.00
2019-01-19T04:51:22.161Z,0.00
2019-01-19T04:53:22.133Z,0.00
2019-01-19T04:54:21.928Z,0.00
2019-01-19T04:55:21.911Z,0.00
2019-01-19T04:56:21.906Z,0.00
2019-01-19T04:58:21.876Z,0.00
2019-01-19T04:59:22.070Z,0.00
2019-01-19T05:00:21.866Z,0.00
2019-01-19T05:01:22.249Z,0.00
2019-01-19T05:02:21.835Z,0.00
2019-01-19T05:03:22.036Z,0.00
2019-01-19T05:06:29.997Z,0.00
2019-01-19T05:07:21.979Z,0.00
2019-01-19T05:10:21.749Z,0.00
2019-01-19T05:11:22.945Z,0.00
2019-01-19T05:14:21.703Z,0.00
2019-01-19T05:15:21.890Z,0.00
2019-01-19T05:16:21.680Z,0.00
2019-01-19T05:19:21.644Z,0.00
2019-01-19T05:20:21.638Z,0.00
2019-01-19T05:22:21.610Z,0.00
2019-01-19T05:23:21.808Z,0.00
2019-01-19T05:24:21.594Z,0.00
2019-01-19T05:25:21.582Z,0.00
2019-01-19T05:27:21.558Z,0.00
2019-01-19T05:31:21.525Z,0.00
2019-01-19T05:32:21.505Z,0.00
2019-01-19T05:33:21.690Z,0.00
2019-01-19T05:37:21.652Z,0.00
2019-01-19T05:40:21.416Z,0.00
2019-01-19T05:41:21.398Z,0.00
2019-01-19T05:42:21.394Z,0.00
2019-01-19T05:43:21.381Z,0.00
2019-01-19T05:44:21.372Z,0.00
2019-01-19T05:45:21.357Z,0.00
2019-01-19T05:46:21.747Z,0.00
2019-01-19T05:47:21.331Z,0.00
2019-01-19T05:48:21.526Z,0.00
2019-01-19T05:50:21.509Z,0.00
2019-01-19T05:52:21.489Z,0.00
2019-01-19T05:53:21.268Z,0.00
2019-01-19T05:55:21.251Z,0.00
2019-01-19T05:56:21.233Z,0.00
2019-01-19T05:57:21.422Z,0.00
2019-01-19T05:58:21.417Z,0.00
2019-01-19T06:04:21.149Z,0.00
2019-01-19T06:05:21.542Z,0.00
2019-01-19T06:07:21.109Z,0.00
2019-01-19T06:09:22.302Z,0.00
2019-01-19T06:10:21.282Z,0.00
2019-01-19T06:11:21.071Z,0.00
2019-01-19T06:12:21.258Z,0.00
2019-01-19T06:13:21.066Z,0.00
2019-01-19T06:16:21.011Z,0.00
2019-01-19T06:17:21.607Z,0.00
2019-01-19T06:18:21.188Z,0.00
2019-01-19T06:19:21.382Z,0.00
2019-01-19T06:20:20.971Z,0.00
2019-01-19T06:21:21.162Z,0.00
2019-01-19T06:22:20.949Z,0.00
2019-01-19T06:24:21.127Z,0.00
2019-01-19T06:25:20.913Z,0.00
2019-01-19T06:26:21.100Z,0.00
2019-01-19T06:27:20.893Z,0.00
2019-01-19T06:28:21.278Z,0.00
2019-01-19T06:29:21.275Z,0.00
2019-01-19T06:32:21.035Z,0.00
2019-01-19T06:35:20.999Z,0.00
2019-01-19T06:37:20.779Z,0.00
2019-01-19T06:39:20.763Z,0.00
2019-01-19T06:40:20.745Z,0.00
2019-01-19T06:41:20.730Z,0.00
2019-01-19T06:42:20.724Z,0.00
2019-01-19T06:43:22.122Z,0.00
2019-01-19T06:44:20.697Z,0.00
2019-01-19T06:45:20.693Z,0.00
2019-01-19T06:46:20.673Z,0.00
2019-01-19T06:47:20.865Z,0.00
2019-01-19T06:48:21.063Z,0.00
2019-01-19T06:51:20.620Z,0.00
2019-01-19T06:52:20.812Z,0.00
2019-01-19T06:53:20.601Z,0.00
2019-01-19T06:54:20.591Z,4.00
2019-01-19T06:55:20.573Z,4.00
2019-01-19T06:56:20.562Z,0.00
2019-01-19T06:57:20.557Z,4.00
2019-01-19T06:58:20.539Z,4.00
2019-01-19T06:59:20.530Z,4.00
2019-01-19T07:00:20.527Z,4.00
2019-01-19T07:01:20.506Z,4.00
2019-01-19T07:03:20.487Z,8.00
2019-01-19T07:04:20.522Z,12.00
2019-01-19T07:06:20.455Z,16.00
2019-01-19T07:07:20.445Z,16.00
2019-01-19T07:10:20.406Z,24.00
2019-01-19T07:11:20.402Z,32.00
2019-01-19T07:12:20.587Z,32.00
2019-01-19T07:14:20.369Z,44.00
2019-01-19T07:15:20.356Z,48.00
2019-01-19T07:16:20.342Z,56.00
2019-01-19T07:18:20.524Z,72.00
2019-01-19T07:19:21.537Z,76.00
2019-01-19T07:20:20.704Z,88.00
2019-01-19T07:21:20.282Z,92.00
2019-01-19T07:22:20.474Z,104.00
2019-01-19T07:23:20.265Z,116.00
2019-01-19T07:26:20.431Z,148.00
2019-01-19T07:27:20.416Z,160.00
2019-01-19T07:28:20.205Z,176.00
2019-01-19T07:29:20.191Z,188.00
2019-01-19T07:31:20.175Z,216.00
2019-01-19T07:32:20.361Z,232.00
2019-01-19T07:33:20.150Z,248.00
2019-01-19T07:35:20.128Z,280.00
2019-01-19T07:36:20.317Z,300.00
2019-01-19T07:37:20.104Z,316.00
2019-01-19T07:38:20.098Z,336.00
2019-01-19T07:39:20.282Z,348.00
2019-01-19T07:40:20.068Z,368.00
2019-01-19T07:41:20.063Z,388.00
2019-01-19T07:42:20.049Z,408.00
2019-01-19T07:43:20.237Z,428.00
2019-01-19T07:44:20.025Z,448.00
2019-01-19T07:46:19.998Z,496.00
2019-01-19T07:47:19.989Z,524.00
2019-01-19T07:49:20.172Z,572.00
2019-01-19T07:50:19.953Z,600.00
2019-01-19T07:51:19.949Z,628.00
2019-01-19T07:52:19.934Z,656.00
2019-01-19T07:53:19.924Z,684.00
2019-01-19T07:54:19.914Z,712.00
2019-01-19T07:55:19.906Z,744.00
2019-01-19T07:56:19.884Z,776.00
2019-01-19T07:57:19.873Z,804.00
2019-01-19T07:58:19.866Z,836.00
2019-01-19T07:59:19.862Z,868.00
2019-01-19T08:01:19.833Z,924.00
2019-01-19T08:03:19.812Z,984.00
2019-01-19T08:05:19.783Z,1052.00
2019-01-19T08:06:19.775Z,1080.00
2019-01-19T08:07:19.762Z,1116.00
2019-01-19T08:08:19.749Z,1156.00
2019-01-19T08:09:19.743Z,1188.00
2019-01-19T08:10:19.932Z,1220.00
2019-01-19T08:12:19.706Z,1252.00
2019-01-19T08:13:19.694Z,1268.00
2019-01-19T08:15:19.677Z,1312.00
2019-01-19T08:16:19.666Z,1340.00
2019-01-19T08:17:19.852Z,1372.00
2019-01-19T08:18:19.641Z,1400.00
2019-01-19T08:19:19.629Z,1436.00
2019-01-19T08:22:19.590Z,1548.00
2019-01-19T08:23:19.784Z,1584.00
2019-01-19T08:24:19.568Z,1616.00
2019-01-19T08:25:19.560Z,1652.00
2019-01-19T08:26:19.547Z,1684.00
2019-01-19T08:27:19.534Z,1708.00
2019-01-19T08:28:19.527Z,1736.00
2019-01-19T08:30:19.503Z,1796.00
2019-01-19T08:31:19.494Z,1840.00
2019-01-19T08:32:19.494Z,1888.00
2019-01-19T08:33:19.475Z,1940.00
2019-01-19T08:34:19.454Z,1984.00
2019-01-19T08:35:20.861Z,2024.00
2019-01-19T08:36:19.641Z,2064.00
2019-01-19T08:37:24.413Z,2092.00
2019-01-19T08:38:19.616Z,2108.00
2019-01-19T08:39:19.403Z,2116.00
2019-01-19T08:40:19.389Z,2104.00
2019-01-19T08:41:19.381Z,2072.00
2019-01-19T08:42:19.371Z,2064.00
2019-01-19T08:43:19.558Z,2092.00
2019-01-19T08:45:19.336Z,2172.00
2019-01-19T08:46:19.321Z,2220.00
2019-01-19T08:47:19.313Z,2260.00
2019-01-19T08:48:19.308Z,2296.00
2019-01-19T08:49:19.289Z,2336.00
2019-01-19T08:51:19.269Z,2396.00
2019-01-19T08:52:19.255Z,2444.00
2019-01-19T08:53:19.450Z,2480.00
2019-01-19T08:54:19.235Z,2528.00
2019-01-19T08:55:19.228Z,2580.00
2019-01-19T08:56:19.212Z,2648.00
2019-01-19T08:57:19.407Z,2692.00
2019-01-19T08:58:19.394Z,2700.00
2019-01-19T08:59:19.178Z,2688.00
2019-01-19T09:00:52.385Z,2672.00
2019-01-19T09:01:19.159Z,2692.00
2019-01-19T09:02:19.153Z,2728.00
2019-01-19T09:04:19.132Z,2836.00
2019-01-19T09:05:19.121Z,2900.00
2019-01-19T09:06:19.102Z,2968.00
2019-01-19T09:07:19.298Z,3028.00
2019-01-19T09:08:19.081Z,3044.00
2019-01-19T09:09:19.078Z,3036.00
2019-01-19T09:10:19.065Z,3004.00
2019-01-19T09:11:19.057Z,2988.00
2019-01-19T09:12:19.040Z,3008.00
2019-01-19T09:13:19.031Z,3012.00
2019-01-19T09:14:19.022Z,3064.00
2019-01-19T09:15:19.007Z,3116.00
2019-01-19T09:16:18.999Z,3172.00
2019-01-19T09:17:18.988Z,3216.00
2019-01-19T09:18:18.974Z,3264.00
2019-01-19T09:19:18.972Z,3308.00
2019-01-19T09:20:18.954Z,3328.00
2019-01-19T09:21:18.944Z,3352.00
2019-01-19T09:22:18.933Z,3396.00
2019-01-19T09:23:18.930Z,3424.00
2019-01-19T09:24:18.922Z,3452.00
2019-01-19T09:25:18.902Z,3492.00
2019-01-19T09:26:18.898Z,3512.00
2019-01-19T09:27:18.887Z,3520.00
2019-01-19T09:28:18.877Z,3520.00
2019-01-19T09:29:18.867Z,3504.00
2019-01-19T09:30:18.850Z,3508.00
2019-01-19T09:31:18.842Z,3528.00
2019-01-19T09:32:18.834Z,3556.00
2019-01-19T09:33:18.826Z,3576.00
2019-01-19T09:34:18.812Z,3612.00
2019-01-19T09:35:18.802Z,3636.00
2019-01-19T09:36:18.793Z,3648.00
2019-01-19T09:37:18.777Z,3672.00
2019-01-19T09:38:18.771Z,3688.00
2019-01-19T09:39:18.761Z,3664.00
2019-01-19T09:40:18.785Z,3668.00
2019-01-19T09:41:18.744Z,3684.00
2019-01-19T09:42:18.725Z,3708.00
2019-01-19T09:43:18.724Z,3724.00
2019-01-19T09:44:18.705Z,3748.00
2019-01-19T09:45:18.698Z,3776.00
2019-01-19T09:46:18.691Z,3808.00
2019-01-19T09:47:18.680Z,3840.00
2019-01-19T09:48:18.665Z,3868.00
2019-01-19T09:49:18.655Z,3912.00
2019-01-19T09:50:18.646Z,3944.00
2019-01-19T09:51:18.637Z,3972.00
2019-01-19T09:52:21.325Z,4004.00
2019-01-19T09:53:18.621Z,4052.00
2019-01-19T09:54:18.612Z,4076.00
2019-01-19T09:55:18.598Z,4112.00
2019-01-19T09:56:18.684Z,4164.00
2019-01-19T09:57:18.577Z,4204.00
2019-01-19T09:58:18.572Z,4216.00
2019-01-19T09:59:18.556Z,4248.00
2019-01-19T10:00:18.551Z,4272.00
2019-01-19T10:01:18.540Z,4296.00
2019-01-19T10:02:18.525Z,4324.00
2019-01-19T10:03:18.523Z,4324.00
2019-01-19T10:04:18.508Z,4336.00
2019-01-19T10:05:18.503Z,4340.00
2019-01-19T10:06:18.490Z,4344.00
2019-01-19T10:07:18.478Z,4348.00
2019-01-19T10:08:18.474Z,4336.00
2019-01-19T10:09:18.467Z,4320.00
2019-01-19T10:10:18.450Z,4328.00
2019-01-19T10:11:18.437Z,4380.00
2019-01-19T10:12:18.429Z,4376.00
2019-01-19T10:13:18.421Z,4364.00
2019-01-19T10:14:18.412Z,4372.00
2019-01-19T10:15:18.406Z,4372.00
2019-01-19T10:16:18.395Z,4364.00
2019-01-19T10:17:18.378Z,4344.00
2019-01-19T10:18:18.376Z,4328.00
2019-01-19T10:19:18.366Z,4332.00
2019-01-19T10:20:18.357Z,4308.00
2019-01-19T10:21:18.342Z,4312.00
2019-01-19T10:22:18.332Z,4332.00
2019-01-19T10:23:18.328Z,4356.00
2019-01-19T10:24:18.314Z,4372.00
2019-01-19T10:25:18.307Z,4384.00
2019-01-19T10:26:18.292Z,4408.00
2019-01-19T10:27:18.285Z,4440.00
2019-01-19T10:28:18.277Z,4452.00
2019-01-19T10:29:18.264Z,4472.00
2019-01-19T10:30:18.254Z,4500.00
2019-01-19T10:31:18.248Z,4524.00
2019-01-19T10:32:18.238Z,4548.00
2019-01-19T10:33:19.332Z,4592.00
2019-01-19T10:34:18.218Z,4604.00
2019-01-19T10:35:18.218Z,4632.00
2019-01-19T10:36:18.201Z,4652.00
2019-01-19T10:37:18.192Z,4692.00
2019-01-19T10:38:18.183Z,4740.00
2019-01-19T10:39:18.184Z,4788.00
2019-01-19T10:40:18.162Z,4852.00
2019-01-19T10:41:18.159Z,4900.00
2019-01-19T10:42:18.147Z,4944.00
2019-01-19T10:43:18.138Z,4996.00
2019-01-19T10:44:18.126Z,5028.00
2019-01-19T10:45:18.123Z,5076.00
2019-01-19T10:46:18.116Z,5116.00
2019-01-19T10:47:18.105Z,5180.00
2019-01-19T10:48:18.096Z,5204.00
2019-01-19T10:49:18.085Z,5244.00
2019-01-19T10:50:18.081Z,5296.00
2019-01-19T10:51:18.068Z,5348.00
2019-01-19T10:52:18.060Z,5396.00
2019-01-19T10:53:18.054Z,5432.00
2019-01-19T10:54:18.045Z,5464.00
2019-01-19T10:55:18.041Z,5448.00
2019-01-19T10:56:18.023Z,5464.00
2019-01-19T10:57:18.020Z,5496.00
2019-01-19T10:58:18.010Z,5572.00
2019-01-19T10:59:18.000Z,5652.00
2019-01-19T11:00:17.991Z,5696.00
2019-01-19T11:01:17.988Z,5736.00
2019-01-19T11:02:18.009Z,5780.00
2019-01-19T11:03:17.975Z,5904.00
2019-01-19T11:04:17.962Z,6028.00
2019-01-19T11:05:17.957Z,6088.00
2019-01-19T11:06:17.950Z,6044.00
2019-01-19T11:07:17.944Z,6056.00
2019-01-19T11:08:17.932Z,6088.00
2019-01-19T11:09:17.924Z,6144.00
2019-01-19T11:10:17.915Z,6224.00
2019-01-19T11:11:17.914Z,6272.00
2019-01-19T11:12:17.905Z,6372.00
2019-01-19T11:13:17.898Z,6420.00
2019-01-19T11:15:17.883Z,6984.00
2019-01-19T11:16:17.875Z,7504.00
2019-01-19T11:17:17.867Z,7580.00
2019-01-19T11:18:17.856Z,7468.00
2019-01-19T11:19:17.855Z,7512.00
2019-01-19T11:20:17.843Z,7624.00
2019-01-19T11:21:17.841Z,7892.00
2019-01-19T11:22:17.832Z,8408.00
2019-01-19T11:23:17.822Z,9208.00
2019-01-19T11:24:17.817Z,9508.00
2019-01-19T11:25:17.816Z,9512.00
2019-01-19T11:26:17.803Z,9536.00
2019-01-19T11:27:17.800Z,9812.00
2019-01-19T11:28:17.797Z,9900.00
2019-01-19T11:29:17.793Z,9808.00
2019-01-19T11:30:17.784Z,9608.00
2019-01-19T11:31:17.775Z,9808.00
2019-01-19T11:32:17.768Z,10188.00
2019-01-19T11:33:17.762Z,10300.00
2019-01-19T11:34:17.766Z,10332.00
2019-01-19T11:35:17.753Z,10476.00
2019-01-19T11:36:17.745Z,10580.00
2019-01-19T11:37:17.744Z,10700.00
2019-01-19T11:38:20.173Z,10584.00
2019-01-19T11:39:17.731Z,10712.00
2019-01-19T11:40:17.726Z,10808.00
2019-01-19T11:41:17.725Z,10896.00
2019-01-19T11:42:17.715Z,10956.00
2019-01-19T11:43:17.712Z,11104.00
2019-01-19T11:44:17.704Z,11128.00
2019-01-19T11:45:17.701Z,11040.00
2019-01-19T11:46:17.701Z,10860.00
2019-01-19T11:47:17.691Z,10724.00
2019-01-19T11:48:17.690Z,10604.00
2019-01-19T11:49:17.686Z,10168.00
2019-01-19T11:50:17.675Z,9912.00
2019-01-19T11:51:17.676Z,9984.00
2019-01-19T11:52:17.668Z,10040.00
2019-01-19T11:53:17.665Z,10060.00
2019-01-19T11:54:17.661Z,10884.00
2019-01-19T11:55:17.661Z,10932.00
2019-01-19T11:56:17.652Z,11080.00
2019-01-19T11:57:17.654Z,11416.00
2019-01-19T11:58:17.653Z,11488.00
2019-01-19T11:59:17.643Z,11804.00
2019-01-19T12:00:17.642Z,12588.00
2019-01-19T12:01:17.635Z,12616.00
2019-01-19T12:02:17.627Z,12204.00
2019-01-19T12:03:17.623Z,12320.00
2019-01-19T12:04:17.621Z,12636.00
2019-01-19T12:05:17.624Z,12176.00
2019-01-19T12:06:17.614Z,12248.00
2019-01-19T12:07:18.481Z,12352.00
2019-01-19T12:08:19.688Z,12364.00
2019-01-19T12:09:17.612Z,12804.00
2019-01-19T12:10:17.601Z,13324.00
2019-01-19T12:11:17.604Z,13752.00
2019-01-19T12:12:17.599Z,14040.00
2019-01-19T12:13:17.600Z,14016.00
2019-01-19T12:14:17.597Z,13976.00
2019-01-19T12:15:17.594Z,13608.00
2019-01-19T12:16:17.589Z,13400.00
2019-01-19T12:17:17.587Z,13360.00
2019-01-19T12:18:17.582Z,13488.00
2019-01-19T12:19:17.579Z,13500.00
2019-01-19T12:20:17.576Z,13800.00
2019-01-19T12:21:17.582Z,13988.00
2019-01-19T12:22:17.572Z,13864.00
2019-01-19T12:23:17.574Z,13712.00
2019-01-19T12:24:17.577Z,13800.00
2019-01-19T12:25:17.571Z,13504.00
2019-01-19T12:26:17.572Z,13240.00
2019-01-19T12:27:17.573Z,13004.00
2019-01-19T12:28:17.566Z,12820.00
2019-01-19T12:29:17.566Z,12776.00
2019-01-19T12:30:17.564Z,12828.00
2019-01-19T12:31:17.562Z,13080.00
2019-01-19T12:32:17.568Z,13040.00
2019-01-19T12:33:17.562Z,13060.00
2019-01-19T12:34:17.559Z,13016.00
2019-01-19T12:35:17.558Z,12848.00
2019-01-19T12:36:17.560Z,12796.00
2019-01-19T12:37:17.555Z,12652.00
2019-01-19T12:38:17.551Z,12380.00
2019-01-19T12:39:17.559Z,12108.00
2019-01-19T12:40:17.554Z,11524.00
2019-01-19T12:41:17.549Z,11140.00
2019-01-19T12:42:17.552Z,10844.00
2019-01-19T12:43:17.552Z,10592.00
2019-01-19T12:44:17.549Z,10380.00
2019-01-19T12:45:17.550Z,10112.00
2019-01-19T12:46:17.550Z,9848.00
2019-01-19T12:47:17.540Z,9640.00
2019-01-19T12:48:17.544Z,9344.00
2019-01-19T12:49:17.544Z,9164.00
2019-01-19T12:50:17.536Z,9016.00
2019-01-19T12:51:17.532Z,8832.00
2019-01-19T12:52:17.531Z,8800.00
2019-01-19T12:53:17.532Z,8856.00
2019-01-19T12:54:17.531Z,8900.00
2019-01-19T12:55:17.523Z,8964.00
2019-01-19T12:56:17.528Z,8924.00
2019-01-19T12:57:17.521Z,8908.00
2019-01-19T12:58:17.517Z,9012.00
2019-01-19T12:59:17.519Z,9120.00
2019-01-19T13:00:17.510Z,9076.00
2019-01-19T13:01:17.512Z,8980.00
2019-01-19T13:02:17.506Z,8932.00
2019-01-19T13:03:17.501Z,8992.00
2019-01-19T13:04:17.499Z,9092.00
2019-01-19T13:05:17.498Z,9188.00
2019-01-19T13:06:17.497Z,9072.00
2019-01-19T13:07:17.494Z,8972.00
2019-01-19T13:08:17.489Z,8964.00
2019-01-19T13:09:17.483Z,8892.00
2019-01-19T13:10:17.483Z,8800.00
2019-01-19T13:11:17.479Z,8672.00
2019-01-19T13:12:17.479Z,8508.00
2019-01-19T13:13:17.478Z,8432.00
2019-01-19T13:14:17.475Z,8460.00
2019-01-19T13:15:17.465Z,8572.00
2019-01-19T13:16:17.465Z,8804.00
2019-01-19T13:17:17.464Z,9084.00
2019-01-19T13:18:17.458Z,9288.00
2019-01-19T13:19:17.457Z,9456.00
2019-01-19T13:20:17.449Z,9620.00
2019-01-19T13:21:17.452Z,9732.00
2019-01-19T13:22:17.439Z,9808.00
2019-01-19T13:23:17.438Z,9840.00
2019-01-19T13:24:17.437Z,9880.00
2019-01-19T13:25:17.430Z,9804.00
2019-01-19T13:26:17.425Z,9676.00
2019-01-19T13:27:17.433Z,9508.00
2019-01-19T13:28:17.425Z,9340.00
2019-01-19T13:29:17.416Z,9176.00
2019-01-19T13:30:17.415Z,8992.00
2019-01-19T13:31:17.411Z,8816.00
2019-01-19T13:32:17.411Z,8668.00
2019-01-19T13:33:17.411Z,8588.00
2019-01-19T13:34:17.413Z,8436.00
2019-01-19T13:35:17.395Z,8264.00
2019-01-19T13:36:17.400Z,8148.00
2019-01-19T13:37:17.397Z,8124.00
2019-01-19T13:38:17.391Z,8172.00
2019-01-19T13:39:17.385Z,8208.00
2019-01-19T13:40:17.377Z,8180.00
2019-01-19T13:41:17.374Z,8080.00
2019-01-19T13:42:17.370Z,7936.00
2019-01-19T13:43:17.368Z,7844.00
2019-01-19T13:44:17.363Z,7796.00
2019-01-19T13:45:17.359Z,7784.00
2019-01-19T13:46:17.361Z,7816.00
2019-01-19T13:47:17.358Z,7940.00
2019-01-19T13:48:17.349Z,8112.00
2019-01-19T13:49:17.351Z,8300.00
2019-01-19T13:50:17.342Z,8424.00
2019-01-19T13:51:17.335Z,8504.00
2019-01-19T13:52:17.338Z,8516.00
2019-01-19T13:53:17.335Z,8560.00
2019-01-19T13:54:17.327Z,8528.00
2019-01-19T13:55:17.364Z,8548.00
2019-01-19T13:56:17.319Z,8544.00
2019-01-19T13:57:17.315Z,8528.00
2019-01-19T13:58:17.317Z,8484.00
2019-01-19T13:59:17.313Z,8332.00
2019-01-19T14:00:18.722Z,8116.00
2019-01-19T14:01:17.304Z,7896.00
2019-01-19T14:02:17.298Z,7720.00
2019-01-19T14:03:17.298Z,7600.00
2019-01-19T14:04:17.295Z,7532.00
2019-01-19T14:05:17.286Z,7476.00
2019-01-19T14:06:17.286Z,7440.00
2019-01-19T14:07:17.276Z,7384.00
2019-01-19T14:08:17.275Z,7280.00
2019-01-19T14:09:17.273Z,7144.00
2019-01-19T14:10:17.264Z,7012.00
2019-01-19T14:11:17.267Z,6908.00
2019-01-19T14:12:17.257Z,6792.00
2019-01-19T14:13:17.255Z,6672.00
2019-01-19T14:14:17.256Z,6556.00
2019-01-19T14:15:17.250Z,6452.00
2019-01-19T14:16:17.246Z,6348.00
2019-01-19T14:17:17.242Z,6264.00
2019-01-19T14:18:17.239Z,6196.00
2019-01-19T14:19:17.230Z,6152.00
2019-01-19T14:20:17.229Z,6104.00
2019-01-19T14:21:17.220Z,6032.00
2019-01-19T14:22:17.219Z,5956.00
2019-01-19T14:23:17.210Z,5872.00
2019-01-19T14:24:17.205Z,5780.00
2019-01-19T14:25:17.210Z,5696.00
2019-01-19T14:26:17.209Z,5608.00
2019-01-19T14:27:17.196Z,5528.00
2019-01-19T14:28:17.190Z,5456.00
2019-01-19T14:29:17.186Z,5368.00
2019-01-19T14:30:17.185Z,5256.00
2019-01-19T14:31:17.180Z,5152.00
2019-01-19T14:32:17.179Z,5040.00
2019-01-19T14:33:17.169Z,4920.00
2019-01-19T14:34:17.159Z,4796.00
2019-01-19T14:35:17.158Z,4704.00
2019-01-19T14:36:17.151Z,4608.00
2019-01-19T14:37:17.142Z,4520.00
2019-01-19T14:38:17.139Z,4436.00
2019-01-19T14:39:17.133Z,4344.00
2019-01-19T14:40:17.128Z,4220.00
2019-01-19T14:41:17.128Z,4112.00
2019-01-19T14:42:17.113Z,4024.00
2019-01-19T14:43:17.116Z,3944.00
2019-01-19T14:44:17.106Z,3876.00
2019-01-19T14:45:17.101Z,3812.00
2019-01-19T14:46:17.099Z,3756.00
2019-01-19T14:47:17.093Z,3700.00
2019-01-19T14:48:17.082Z,3652.00
2019-01-19T14:49:17.079Z,3616.00
2019-01-19T14:50:17.066Z,3568.00
2019-01-19T14:51:17.066Z,3508.00
2019-01-19T14:52:17.059Z,3416.00
2019-01-19T14:53:17.051Z,3336.00
2019-01-19T14:54:17.043Z,3268.00
2019-01-19T14:55:17.083Z,3196.00
2019-01-19T14:56:17.037Z,3132.00
2019-01-19T14:57:17.026Z,3068.00
2019-01-19T14:58:17.019Z,3004.00
2019-01-19T14:59:17.009Z,2944.00
2019-01-19T15:00:17.005Z,2900.00
2019-01-19T15:01:16.998Z,2904.00
2019-01-19T15:02:16.994Z,2908.00